createdAt,value
2022-07-30T00:00:29.607Z,100.00
2022-07-30T00:03:00.143Z,100.00
2022-07-30T00:05:30.004Z,100.00
2022-07-30T00:07:58.273Z,100.00
2022-07-30T00:10:26.514Z,100.00
2022-07-30T00:13:01.370Z,100.00
2022-07-30T00:15:35.027Z,100.00
2022-07-30T00:18:04.851Z,100.00
2022-07-30T00:20:33.491Z,100.00
2022-07-30T00:23:04.915Z,100.00
2022-07-30T00:25:33.295Z,100.00
2022-07-30T00:28:01.637Z,100.00
2022-07-30T00:30:29.786Z,100.00
2022-07-30T00:33:00.641Z,100.00
2022-07-30T00:35:30.443Z,100.00
2022-07-30T00:37:58.657Z,100.00
2022-07-30T00:40:26.841Z,100.00
2022-07-30T00:43:04.065Z,100.00
2022-07-30T00:45:32.155Z,100.00
2022-07-30T00:48:01.696Z,100.00
2022-07-30T00:50:32.685Z,100.00
2022-07-30T00:53:00.977Z,100.00
2022-07-30T00:55:29.016Z,100.00
2022-07-30T00:57:57.034Z,100.00
2022-07-30T01:00:25.137Z,100.00
2022-07-30T01:02:53.195Z,100.00
2022-07-30T01:05:21.526Z,100.00
2022-07-30T01:07:51.736Z,100.00
2022-07-30T01:10:19.797Z,100.00
2022-07-30T01:12:55.801Z,100.00
2022-07-30T01:15:23.877Z,100.00
2022-07-30T01:17:53.261Z,100.00
2022-07-30T01:20:25.968Z,100.00
2022-07-30T01:22:59.745Z,100.00
2022-07-30T01:25:47.765Z,100.00
2022-07-30T01:28:19.015Z,100.00
2022-07-30T01:30:47.172Z,100.00
2022-07-30T01:33:19.205Z,100.00
2022-07-30T01:36:02.069Z,100.00
2022-07-30T01:38:35.002Z,100.00
2022-07-30T01:41:05.226Z,100.00
2022-07-30T01:43:34.619Z,100.00
2022-07-30T01:46:13.571Z,100.00
2022-07-30T01:48:42.728Z,100.00
2022-07-30T01:51:11.818Z,100.00
2022-07-30T01:53:41.858Z,100.00
2022-07-30T01:56:13.584Z,100.00
2022-07-30T01:58:45.496Z,100.00
2022-07-30T02:01:13.673Z,100.00
2022-07-30T02:03:41.988Z,100.00
2022-07-30T02:06:13.283Z,100.00
2022-07-30T02:09:36.387Z,100.00
2022-07-30T02:12:24.602Z,100.00
2022-07-30T02:14:56.607Z,100.00
2022-07-30T02:17:30.429Z,100.00
2022-07-30T02:20:07.904Z,100.00
2022-07-30T02:22:40.015Z,100.00
2022-07-30T02:25:10.747Z,100.00
2022-07-30T02:27:41.487Z,100.00
2022-07-30T02:30:11.137Z,100.00
2022-07-30T02:32:40.719Z,100.00
2022-07-30T02:35:16.657Z,100.00
2022-07-30T02:37:54.051Z,100.00
2022-07-30T02:40:22.967Z,100.00
2022-07-30T02:42:55.048Z,100.00
2022-07-30T02:45:25.289Z,100.00
2022-07-30T02:47:55.644Z,100.00
2022-07-30T02:50:42.108Z,100.00
2022-07-30T02:53:13.329Z,100.00
2022-07-30T02:55:42.653Z,100.00
2022-07-30T02:58:12.993Z,100.00
2022-07-30T03:00:41.899Z,100.00
2022-07-30T03:03:10.529Z,100.00
2022-07-30T03:05:50.543Z,100.00
2022-07-30T03:08:23.755Z,100.00
2022-07-30T03:10:53.142Z,100.00
2022-07-30T03:13:23.656Z,100.00
2022-07-30T03:15:53.230Z,100.00
2022-07-30T03:18:21.958Z,100.00
2022-07-30T03:20:53.147Z,100.00
2022-07-30T03:23:21.625Z,100.00
2022-07-30T03:25:57.586Z,100.00
2022-07-30T03:28:34.889Z,100.00
2022-07-30T03:31:03.157Z,100.00
2022-07-30T03:33:38.220Z,100.00
2022-07-30T03:36:16.910Z,100.00
2022-07-30T03:38:45.508Z,100.00
2022-07-30T03:41:14.395Z,100.00
2022-07-30T03:43:50.090Z,100.00
2022-07-30T03:46:18.893Z,100.00
2022-07-30T03:48:50.461Z,100.00
2022-07-30T03:51:18.785Z,100.00
2022-07-30T03:53:47.073Z,100.00
2022-07-30T03:56:21.431Z,100.00
2022-07-30T03:58:57.594Z,100.00
2022-07-30T04:01:26.695Z,100.00
2022-07-30T04:03:59.374Z,100.00
2022-07-30T04:06:30.611Z,100.00
2022-07-30T04:09:02.621Z,100.00
2022-07-30T04:11:41.419Z,100.00
2022-07-30T04:14:16.089Z,100.00
2022-07-30T04:16:53.796Z,100.00
2022-07-30T04:19:32.334Z,100.00
2022-07-30T04:22:08.066Z,100.00
2022-07-30T04:24:37.109Z,100.00
2022-07-30T04:27:08.528Z,100.00
2022-07-30T04:29:45.008Z,100.00
2022-07-30T04:32:23.170Z,100.00
2022-07-30T04:34:53.056Z,100.00
2022-07-30T04:37:28.366Z,100.00
2022-07-30T04:39:57.967Z,100.00
2022-07-30T04:42:29.810Z,100.00
2022-07-30T04:45:02.451Z,100.00
2022-07-30T04:47:30.667Z,100.00
2022-07-30T04:50:02.583Z,100.00
2022-07-30T04:52:31.255Z,100.00
2022-07-30T04:55:05.942Z,100.00
2022-07-30T04:57:40.727Z,100.00
2022-07-30T05:00:13.690Z,100.00
2022-07-30T05:02:42.804Z,100.00
2022-07-30T05:05:12.682Z,100.00
2022-07-30T05:07:48.998Z,100.00
2022-07-30T05:10:20.794Z,100.00
2022-07-30T05:12:49.082Z,100.00
2022-07-30T05:15:20.109Z,100.00
2022-07-30T05:17:51.781Z,100.00
2022-07-30T05:20:21.398Z,100.00
2022-07-30T05:22:51.170Z,100.00
2022-07-30T05:25:19.568Z,100.00
2022-07-30T05:27:47.750Z,100.00
2022-07-30T05:30:15.908Z,100.00
2022-07-30T05:32:46.468Z,100.00
2022-07-30T05:35:15.643Z,100.00
2022-07-30T05:37:43.788Z,100.00
2022-07-30T05:40:18.710Z,100.00
2022-07-30T05:42:46.918Z,100.00
2022-07-30T05:45:15.408Z,100.00
2022-07-30T05:47:43.638Z,100.00
2022-07-30T05:50:24.725Z,100.00
2022-07-30T05:52:53.248Z,100.00
2022-07-30T05:55:21.538Z,100.00
2022-07-30T05:57:49.778Z,100.00
2022-07-30T06:00:19.582Z,100.00
2022-07-30T06:02:47.802Z,100.00
2022-07-30T06:05:16.143Z,100.00
2022-07-30T06:07:46.099Z,100.00
2022-07-30T06:10:18.139Z,100.00
2022-07-30T06:12:48.659Z,100.00
2022-07-30T06:15:26.497Z,100.00
2022-07-30T06:18:02.234Z,100.00
2022-07-30T06:20:33.678Z,100.00
2022-07-30T06:23:11.988Z,100.00
2022-07-30T06:25:45.491Z,100.00
2022-07-30T06:28:36.018Z,100.00
2022-07-30T06:31:02.743Z,100.00
2022-07-30T06:33:38.585Z,100.00
2022-07-30T06:36:14.054Z,100.00
2022-07-30T06:38:44.019Z,100.00
2022-07-30T06:41:25.994Z,100.00
2022-07-30T06:44:02.520Z,100.00
2022-07-30T06:46:30.935Z,100.00
2022-07-30T06:49:04.843Z,100.00
2022-07-30T06:51:51.632Z,100.00
2022-07-30T06:54:33.825Z,100.00
2022-07-30T06:57:11.560Z,100.00
2022-07-30T06:59:56.687Z,100.00
2022-07-30T07:02:35.736Z,100.00
2022-07-30T07:05:13.861Z,100.00
2022-07-30T07:07:58.339Z,100.00
2022-07-30T07:10:35.850Z,100.00
2022-07-30T07:13:07.300Z,100.00
2022-07-30T07:15:37.523Z,100.00
2022-07-30T07:18:16.820Z,100.00
2022-07-30T07:20:46.852Z,100.00
2022-07-30T07:23:38.999Z,100.00
2022-07-30T07:26:11.929Z,100.00
2022-07-30T07:28:51.328Z,100.00
2022-07-30T07:32:04.505Z,100.00
2022-07-30T07:34:26.012Z,100.00
2022-07-30T07:46:03.325Z,100.00
2022-07-30T07:48:45.721Z,100.00
2022-07-30T07:54:30.028Z,100.00
2022-07-30T07:57:15.502Z,100.00
2022-07-30T08:00:16.394Z,100.00
2022-07-30T08:32:08.057Z,100.00
2022-07-30T08:35:08.082Z,100.00
2022-07-30T09:00:00.735Z,100.00
2022-07-30T09:15:20.735Z,100.00
2022-07-30T09:46:18.006Z,100.00
2022-07-30T09:53:00.380Z,100.00
2022-07-30T09:55:47.300Z,100.00
2022-07-30T09:58:27.047Z,100.00
2022-07-30T10:01:04.138Z,96.84
2022-07-30T10:03:48.749Z,98.85
2022-07-30T10:06:56.088Z,98.14
2022-07-30T10:09:49.004Z,100.00
2022-07-30T10:12:42.085Z,100.00
2022-07-30T10:15:48.948Z,100.00
2022-07-30T10:24:33.828Z,100.00
2022-07-30T10:27:34.555Z,100.00
2022-07-30T10:45:32.193Z,100.00
2022-07-30T10:48:10.342Z,97.93
2022-07-30T10:51:18.644Z,92.81
2022-07-30T12:45:06.579Z,48.63
2022-07-30T13:40:15.179Z,39.25
2022-07-30T14:14:47.991Z,29.02
2022-07-30T14:17:56.862Z,32.09
2022-07-30T14:20:36.581Z,37.03
2022-07-30T14:23:33.893Z,39.04
2022-07-30T14:26:15.572Z,42.26
2022-07-30T14:28:51.408Z,46.75
2022-07-30T14:31:21.019Z,52.91
2022-07-30T14:33:52.656Z,53.54
2022-07-30T14:36:23.626Z,53.78
2022-07-30T14:39:01.923Z,49.92
2022-07-30T14:48:02.437Z,47.00
2022-07-30T14:51:03.449Z,46.29
2022-07-30T14:53:50.572Z,40.98
2022-07-30T14:56:28.139Z,41.15
2022-07-30T15:02:28.130Z,45.76
2022-07-30T15:04:59.972Z,51.39
2022-07-30T15:07:38.321Z,54.18
2022-07-30T15:10:19.786Z,57.38
2022-07-30T15:13:01.119Z,61.50
2022-07-30T15:15:41.749Z,64.55
2022-07-30T15:18:23.441Z,67.77
2022-07-30T15:20:57.982Z,64.55
2022-07-30T15:23:31.171Z,86.33
2022-07-30T15:25:59.438Z,100.00
2022-07-30T15:28:28.966Z,100.00
2022-07-30T15:31:09.198Z,100.00
2022-07-30T15:33:45.527Z,100.00
2022-07-30T15:36:15.147Z,100.00
2022-07-30T15:38:49.868Z,100.00
2022-07-30T15:41:29.766Z,100.00
2022-07-30T15:44:03.139Z,100.00
2022-07-30T15:46:41.339Z,100.00
2022-07-30T15:49:15.711Z,100.00
2022-07-30T15:51:52.520Z,100.00
2022-07-30T15:54:34.055Z,100.00
2022-07-30T15:57:13.727Z,100.00
2022-07-30T15:59:44.338Z,100.00
2022-07-30T16:02:18.394Z,100.00
2022-07-30T16:04:51.555Z,100.00
2022-07-30T16:07:37.114Z,100.00
2022-07-30T16:10:09.284Z,100.00
2022-07-30T16:12:47.643Z,100.00
2022-07-30T16:15:26.788Z,100.00
2022-07-30T16:18:02.052Z,100.00
2022-07-30T16:20:34.391Z,100.00
2022-07-30T16:23:12.016Z,100.00
2022-07-30T16:25:42.796Z,100.00
2022-07-30T16:28:15.603Z,100.00
2022-07-30T16:30:50.976Z,100.00
2022-07-30T16:36:28.784Z,100.00
2022-07-30T16:39:09.469Z,100.00
2022-07-30T16:41:45.102Z,100.00
2022-07-30T16:44:21.466Z,100.00
2022-07-30T16:46:50.063Z,100.00
2022-07-30T16:49:21.106Z,100.00
2022-07-30T16:51:56.575Z,100.00
2022-07-30T16:54:34.638Z,100.00
2022-07-30T16:57:19.587Z,100.00
2022-07-30T16:59:51.137Z,100.00
2022-07-30T17:02:25.355Z,100.00
2022-07-30T17:04:54.134Z,100.00
2022-07-30T17:07:30.327Z,100.00
2022-07-30T17:10:06.346Z,100.00
2022-07-30T17:12:50.751Z,100.00
2022-07-30T17:15:19.858Z,100.00
2022-07-30T17:17:53.027Z,100.00
2022-07-30T17:20:30.424Z,100.00
2022-07-30T17:23:01.438Z,100.00
2022-07-30T17:25:57.619Z,100.00
2022-07-30T17:28:31.493Z,100.00
2022-07-30T17:30:59.903Z,100.00
2022-07-30T17:33:35.726Z,100.00
2022-07-30T17:36:10.932Z,100.00
2022-07-30T17:38:41.331Z,100.00
2022-07-30T17:41:13.657Z,100.00
2022-07-30T17:43:57.048Z,100.00
2022-07-30T17:46:31.118Z,100.00
2022-07-30T17:49:02.415Z,100.00
2022-07-30T17:51:31.492Z,100.00
2022-07-30T17:54:01.863Z,100.00
2022-07-30T17:56:35.583Z,100.00
2022-07-30T17:59:04.039Z,100.00
2022-07-30T18:01:35.786Z,100.00
2022-07-30T18:04:04.358Z,100.00
2022-07-30T18:06:41.259Z,100.00
2022-07-30T18:09:20.758Z,100.00
2022-07-30T18:11:57.518Z,100.00
2022-07-30T18:14:39.588Z,100.00
2022-07-30T18:17:14.124Z,100.00
2022-07-30T18:19:51.318Z,100.00
2022-07-30T18:22:29.093Z,100.00
2022-07-30T18:25:01.008Z,100.00
2022-07-30T18:27:33.679Z,100.00
2022-07-30T18:30:02.491Z,100.00
2022-07-30T18:32:33.860Z,100.00
2022-07-30T18:35:05.040Z,100.00
2022-07-30T18:37:40.128Z,100.00
2022-07-30T18:40:10.884Z,100.00
2022-07-30T18:42:40.608Z,100.00
2022-07-30T18:45:13.322Z,100.00
2022-07-30T18:47:44.343Z,100.00
2022-07-30T18:50:13.492Z,100.00
2022-07-30T18:52:42.351Z,100.00
2022-07-30T18:55:12.698Z,100.00
2022-07-30T18:57:42.802Z,100.00
2022-07-30T19:00:34.171Z,100.00
2022-07-30T19:03:08.189Z,100.00
2022-07-30T19:05:41.742Z,100.00
2022-07-30T19:08:15.211Z,100.00
2022-07-30T19:10:43.994Z,100.00
2022-07-30T19:13:15.177Z,100.00
2022-07-30T19:15:43.968Z,100.00
2022-07-30T19:18:15.620Z,100.00
2022-07-30T19:20:44.824Z,100.00
2022-07-30T19:23:18.693Z,100.00
2022-07-30T19:25:48.486Z,100.00
2022-07-30T19:28:18.229Z,100.00
2022-07-30T19:30:46.551Z,100.00
2022-07-30T19:33:18.931Z,100.00
2022-07-30T19:35:48.039Z,100.00
2022-07-30T19:38:22.209Z,100.00
2022-07-30T19:40:59.679Z,100.00
2022-07-30T19:43:39.389Z,100.00
2022-07-30T19:46:08.168Z,100.00
2022-07-30T19:48:40.338Z,100.00
2022-07-30T19:54:03.455Z,100.00
2022-07-30T19:56:36.223Z,100.00
2022-07-30T19:59:15.139Z,100.00
2022-07-30T20:01:43.944Z,100.00
2022-07-30T20:04:14.289Z,100.00
2022-07-30T20:06:46.207Z,100.00
2022-07-30T20:09:16.412Z,100.00
2022-07-30T20:11:47.875Z,100.00
2022-07-30T20:14:23.013Z,100.00
2022-07-30T20:16:51.591Z,100.00
2022-07-30T20:19:20.300Z,100.00
2022-07-30T20:21:56.790Z,100.00
2022-07-30T20:24:31.081Z,100.00
2022-07-30T20:26:59.859Z,100.00
2022-07-30T20:29:29.633Z,100.00
2022-07-30T20:31:59.475Z,100.00
2022-07-30T20:34:27.807Z,100.00
2022-07-30T20:36:57.704Z,100.00
2022-07-30T20:39:42.084Z,100.00
2022-07-30T20:42:12.287Z,100.00
2022-07-30T20:44:49.314Z,100.00
2022-07-30T20:47:34.274Z,100.00
2022-07-30T20:50:11.491Z,100.00
2022-07-30T20:52:48.226Z,100.00
2022-07-30T20:55:22.525Z,100.00
2022-07-30T20:58:01.357Z,100.00
2022-07-30T21:00:49.430Z,100.00
2022-07-30T21:03:21.256Z,100.00
2022-07-30T21:05:52.412Z,100.00
2022-07-30T21:08:25.543Z,100.00
2022-07-30T21:10:57.569Z,100.00
2022-07-30T21:13:28.698Z,100.00
2022-07-30T21:16:03.521Z,100.00
2022-07-30T21:18:33.084Z,100.00
2022-07-30T21:21:05.504Z,100.00
2022-07-30T21:23:35.673Z,100.00
2022-07-30T21:26:13.280Z,100.00
2022-07-30T21:28:42.307Z,100.00
2022-07-30T21:31:15.326Z,100.00
2022-07-30T21:33:46.242Z,100.00
2022-07-30T21:36:14.943Z,100.00
2022-07-30T21:38:48.370Z,100.00
2022-07-30T21:41:21.097Z,100.00
2022-07-30T21:44:09.929Z,100.00
2022-07-30T21:46:40.723Z,100.00
2022-07-30T21:49:10.319Z,100.00
2022-07-30T21:51:42.350Z,100.00
2022-07-30T21:54:15.838Z,100.00
2022-07-30T21:56:47.537Z,100.00
2022-07-30T21:59:19.017Z,100.00
2022-07-30T22:01:59.225Z,100.00
2022-07-30T22:04:31.361Z,100.00
2022-07-30T22:07:01.848Z,100.00
2022-07-30T22:09:34.232Z,100.00
2022-07-30T22:12:09.265Z,100.00
2022-07-30T22:14:41.544Z,100.00
2022-07-30T22:20:03.632Z,100.00
2022-07-30T22:22:36.296Z,100.00
2022-07-30T22:25:12.270Z,100.00
2022-07-30T22:27:56.351Z,100.00
2022-07-30T22:30:29.782Z,100.00
2022-07-30T22:33:13.194Z,100.00
2022-07-30T22:35:49.694Z,100.00
2022-07-30T22:38:20.211Z,100.00
2022-07-30T22:40:50.476Z,100.00
2022-07-30T22:43:21.735Z,100.00
2022-07-30T22:45:53.470Z,100.00
2022-07-30T22:48:27.486Z,100.00
2022-07-30T22:51:00.167Z,100.00
2022-07-30T22:54:03.613Z,100.00
2022-07-30T22:56:23.958Z,100.00
2022-07-30T22:58:52.801Z,100.00
2022-07-30T23:01:24.309Z,100.00
2022-07-30T23:03:54.207Z,100.00
2022-07-30T23:06:23.194Z,100.00
2022-07-30T23:08:51.683Z,100.00
2022-07-30T23:11:21.339Z,100.00
2022-07-30T23:12:17.197Z,100.00
2022-07-30T23:12:33.211Z,100.00
2022-07-30T23:13:55.974Z,100.00
2022-07-30T23:16:39.111Z,100.00
2022-07-30T23:19:14.033Z,100.00
2022-07-30T23:21:53.885Z,100.00
2022-07-30T23:24:22.453Z,100.00
2022-07-30T23:26:53.872Z,100.00
2022-07-30T23:29:25.315Z,100.00
2022-07-30T23:31:53.957Z,100.00
2022-07-30T23:34:24.156Z,100.00
2022-07-30T23:36:55.820Z,100.00
2022-07-30T23:39:25.090Z,100.00
2022-07-30T23:41:55.403Z,100.00
2022-07-30T23:44:23.972Z,100.00
2022-07-30T23:46:52.582Z,100.00
2022-07-30T23:49:26.736Z,100.00
2022-07-30T23:51:55.717Z,100.00
2022-07-30T23:54:25.654Z,100.00
2022-07-30T23:56:56.284Z,100.00
2022-07-30T23:59:40.848Z,100.00
